Time;durP1;ratioP1;P1;durP2;ratioP2;P2;SDS_P1;SDS_P2;PMS_P1;PMS_P2;Temp;Humidity;BMP_temperature;BMP_pressure;BME280_temperature;BME280_humidity;BME280_pressure;Samples;Min_cycle;Max_cycle;Signal;HPM_P1;HPM_P2
2023/09/12 00:00:45;;;;;;;49.22;29.63;;;18.60;99.90;;;;;;5027538;28;20116;-66
2023/09/12 00:03:11;;;;;;;55.70;28.73;;;18.70;99.90;;;;;;5037259;28;20190;-64
2023/09/12 00:05:36;;;;;;;51.38;28.60;;;18.70;99.90;;;;;;5037292;28;20064;-65
2023/09/12 00:08:03;;;;;;;46.17;27.52;;;18.60;99.90;;;;;;5038208;28;20037;-66
2023/09/12 00:10:29;;;;;;;47.72;26.35;;;18.50;99.90;;;;;;5037900;28;20178;-66
2023/09/12 00:12:55;;;;;;;54.95;29.83;;;18.40;99.90;;;;;;5023151;28;20060;-67
2023/09/12 00:15:21;;;;;;;53.53;29.85;;;18.40;99.90;;;;;;5036583;28;20086;-67
2023/09/12 00:17:48;;;;;;;49.25;29.25;;;18.30;99.90;;;;;;5036404;28;20092;-68
2023/09/12 00:20:14;;;;;;;54.30;30.42;;;18.30;99.90;;;;;;5038764;28;20240;-68
2023/09/12 00:22:39;;;;;;;55.60;30.17;;;18.30;99.90;;;;;;5042147;28;20120;-67
2023/09/12 00:25:06;;;;;;;51.53;28.80;;;18.30;99.90;;;;;;5040223;28;20052;-67
2023/09/12 00:27:31;;;;;;;55.55;30.15;;;18.30;99.90;;;;;;5036018;28;20913;-67
2023/09/12 00:29:57;;;;;;;49.88;28.70;;;18.20;99.90;;;;;;5032247;28;20127;-68
2023/09/12 00:32:22;;;;;;;53.90;29.38;;;18.20;99.90;;;;;;5033202;28;20057;-69
2023/09/12 00:34:48;;;;;;;55.35;29.52;;;18.20;99.90;;;;;;5040171;28;20342;-68
2023/09/12 00:37:13;;;;;;;55.25;29.83;;;18.10;99.90;;;;;;5026881;28;20091;-68
2023/09/12 00:39:39;;;;;;;52.05;29.42;;;18.10;99.90;;;;;;5035394;28;20047;-68
2023/09/12 00:42:07;;;;;;;68.30;33.80;;;18.00;99.90;;;;;;5029348;28;20060;-68
2023/09/12 00:44:33;;;;;;;55.88;30.75;;;18.00;99.90;;;;;;5046048;28;20074;-68
2023/09/12 00:46:59;;;;;;;54.58;30.08;;;18.10;99.90;;;;;;5043743;28;20485;-68
2023/09/12 00:49:26;;;;;;;61.50;31.15;;;18.10;99.90;;;;;;5040146;28;20482;-68
2023/09/12 00:51:52;;;;;;;60.47;32.28;;;18.10;99.90;;;;;;5039802;28;20043;-68
2023/09/12 00:54:18;;;;;;;58.17;30.95;;;18.10;99.90;;;;;;5041638;28;20082;-68
2023/09/12 00:56:44;;;;;;;59.55;30.25;;;18.00;99.90;;;;;;5044030;28;20045;-67
2023/09/12 00:59:10;;;;;;;59.00;31.50;;;18.00;99.90;;;;;;5044382;28;20040;-67
2023/09/12 01:01:36;;;;;;;61.03;31.70;;;18.00;99.90;;;;;;5039635;28;20045;-67
2023/09/12 01:04:02;;;;;;;61.78;31.65;;;18.00;99.90;;;;;;5043283;28;20405;-68
2023/09/12 01:06:30;;;;;;;58.85;31.77;;;18.00;99.90;;;;;;5043815;28;20117;-68
2023/09/12 01:08:56;;;;;;;68.65;33.03;;;18.00;99.90;;;;;;5034340;28;20061;-67
2023/09/12 01:11:22;;;;;;;59.70;32.60;;;18.00;99.90;;;;;;5051602;28;20040;-67
2023/09/12 01:13:48;;;;;;;61.92;31.58;;;18.00;99.90;;;;;;5040855;28;20044;-68
2023/09/12 01:16:13;;;;;;;62.38;32.10;;;17.90;99.90;;;;;;5039413;28;20038;-67
2023/09/12 01:18:39;;;;;;;65.15;32.65;;;17.90;99.90;;;;;;5038595;28;20057;-68
2023/09/12 01:21:43;;;;;;;56.63;29.95;;;17.90;99.90;;;;;;5042600;28;20081;-68
2023/09/12 01:24:23;;;;;;;59.58;30.75;;;18.00;99.90;;;;;;5019868;28;20483;-68
2023/09/12 01:26:56;;;;;;;58.30;31.45;;;17.90;99.90;;;;;;5037517;28;20033;-68
2023/09/12 01:29:22;;;;;;;56.83;30.33;;;18.00;99.90;;;;;;5042511;28;20052;-67
2023/09/12 01:31:49;;;;;;;56.10;30.35;;;18.00;99.90;;;;;;5046995;28;20067;-68
2023/09/12 01:34:14;;;;;;;58.90;31.88;;;18.00;99.90;;;;;;5032232;28;20470;-68
2023/09/12 01:36:40;;;;;;;54.65;30.33;;;17.90;99.90;;;;;;5043402;28;20063;-68
2023/09/12 01:39:06;;;;;;;57.17;30.73;;;17.80;99.90;;;;;;5046715;28;20044;-68
2023/09/12 01:41:37;;;;;;;57.42;29.75;;;17.70;99.90;;;;;;5045601;28;20053;-68
2023/09/12 01:44:04;;;;;;;55.00;30.10;;;17.70;99.90;;;;;;5045448;28;20046;-68
2023/09/12 01:46:31;;;;;;;54.60;30.27;;;17.70;99.90;;;;;;5040524;28;20084;-72
2023/09/12 01:48:58;;;;;;;48.90;27.50;;;17.80;99.90;;;;;;5044711;28;20041;-68
2023/09/12 01:51:24;;;;;;;57.15;30.70;;;17.70;99.90;;;;;;5043193;28;20045;-68
2023/09/12 01:53:52;;;;;;;59.38;29.60;;;17.60;99.90;;;;;;5045356;28;20468;-68
2023/09/12 01:56:19;;;;;;;55.65;31.40;;;17.70;99.90;;;;;;5042022;28;20415;-68
2023/09/12 01:58:44;;;;;;;67.15;31.60;;;17.70;99.90;;;;;;5038246;28;20037;-68
2023/09/12 02:01:11;;;;;;;63.88;31.95;;;17.70;99.90;;;;;;5037948;28;20037;-66
2023/09/12 02:03:36;;;;;;;61.35;31.70;;;17.70;99.90;;;;;;5042881;28;20099;-68
2023/09/12 02:06:02;;;;;;;61.80;32.55;;;17.80;99.90;;;;;;5037982;28;20103;-68
2023/09/12 02:08:27;;;;;;;63.17;32.72;;;17.80;99.90;;;;;;5038261;28;20040;-68
2023/09/12 02:10:53;;;;;;;61.53;33.65;;;17.70;99.90;;;;;;5031457;28;20041;-68
2023/09/12 02:13:18;;;;;;;59.80;33.10;;;17.70;99.90;;;;;;5039187;28;20087;-68
2023/09/12 02:15:44;;;;;;;68.15;33.60;;;17.70;99.90;;;;;;5025338;28;20048;-67
2023/09/12 02:18:09;;;;;;;66.25;33.35;;;17.60;99.90;;;;;;5040323;28;20055;-67
2023/09/12 02:20:38;;;;;;;69.70;34.25;;;17.60;99.90;;;;;;5041966;28;20051;-68
2023/09/12 02:23:04;;;;;;;66.35;34.33;;;17.60;99.90;;;;;;5040479;28;20032;-68
2023/09/12 02:25:29;;;;;;;62.90;33.88;;;17.70;99.90;;;;;;5047720;28;20044;-68
2023/09/12 02:27:55;;;;;;;69.95;33.20;;;17.70;99.90;;;;;;5041078;28;20086;-68
2023/09/12 02:30:20;;;;;;;64.57;34.03;;;17.70;99.90;;;;;;5033838;28;20119;-68
2023/09/12 02:32:46;;;;;;;65.50;34.65;;;17.70;99.90;;;;;;5039204;28;20465;-68
2023/09/12 02:35:11;;;;;;;64.07;31.88;;;17.70;99.90;;;;;;5036718;28;20061;-68
2023/09/12 02:37:37;;;;;;;64.53;33.47;;;17.70;99.90;;;;;;5032945;28;20056;-67
2023/09/12 02:40:06;;;;;;;67.30;34.13;;;17.70;99.90;;;;;;5032613;28;20057;-68
2023/09/12 02:42:32;;;;;;;70.80;36.42;;;17.70;99.90;;;;;;5041890;28;20138;-68
2023/09/12 02:44:58;;;;;;;68.00;34.22;;;17.70;99.90;;;;;;5038996;28;20095;-67
2023/09/12 02:47:24;;;;;;;67.88;33.20;;;17.70;99.90;;;;;;5036736;28;20044;-67
2023/09/12 02:49:49;;;;;;;67.13;35.47;;;17.70;99.90;;;;;;5042476;28;20136;-67
2023/09/12 02:52:15;;;;;;;64.05;32.78;;;17.70;99.90;;;;;;5035722;28;20029;-68
2023/09/12 02:54:40;;;;;;;65.75;33.28;;;17.70;99.90;;;;;;5039555;28;20933;-67
2023/09/12 02:57:06;;;;;;;63.80;32.30;;;17.70;99.90;;;;;;5039762;28;20040;-68
2023/09/12 02:59:31;;;;;;;66.75;31.77;;;17.60;99.90;;;;;;5043459;28;20155;-70
2023/09/12 03:01:57;;;;;;;60.40;31.83;;;17.60;99.90;;;;;;5041467;28;20075;-67
2023/09/12 03:04:30;;;;;;;67.55;33.20;;;17.60;99.90;;;;;;5042515;28;20454;-67
2023/09/12 03:06:55;;;;;;;65.72;33.10;;;17.40;99.90;;;;;;5041995;28;20480;-67
2023/09/12 03:09:22;;;;;;;65.78;34.65;;;17.50;99.90;;;;;;5036881;28;20049;-67
2023/09/12 03:11:49;;;;;;;58.72;30.65;;;17.40;99.90;;;;;;5034192;28;20481;-68
2023/09/12 03:14:14;;;;;;;55.28;31.05;;;17.40;99.90;;;;;;5032239;28;20045;-68
2023/09/12 03:16:40;;;;;;;60.67;31.20;;;17.40;99.90;;;;;;5034713;28;20049;-68
2023/09/12 03:19:05;;;;;;;53.45;28.73;;;17.40;99.90;;;;;;5019603;28;20489;-68
2023/09/12 03:21:31;;;;;;;48.35;29.17;;;17.40;99.90;;;;;;5040826;28;20045;-68
2023/09/12 03:23:57;;;;;;;50.92;30.27;;;17.30;99.90;;;;;;5044268;28;20460;-67
2023/09/12 03:26:22;;;;;;;55.78;30.23;;;17.30;99.90;;;;;;5039701;28;20227;-67
2023/09/12 03:28:52;;;;;;;56.40;29.90;;;17.30;99.90;;;;;;5037402;28;20044;-67
2023/09/12 03:31:18;;;;;;;55.83;29.52;;;17.30;99.90;;;;;;5043585;28;20381;-67
2023/09/12 03:33:49;;;;;;;59.53;32.45;;;17.30;99.90;;;;;;5038674;28;20032;-67
2023/09/12 03:36:15;;;;;;;63.58;34.08;;;17.30;99.90;;;;;;5029351;28;20128;-67
2023/09/12 03:38:41;;;;;;;60.90;32.13;;;17.30;99.90;;;;;;5030989;28;20483;-68
2023/09/12 03:41:07;;;;;;;61.47;32.30;;;17.30;99.90;;;;;;5041066;28;20028;-68
2023/09/12 03:43:33;;;;;;;66.82;35.03;;;17.30;99.90;;;;;;5042324;28;20392;-65
2023/09/12 03:45:59;;;;;;;65.60;32.38;;;17.30;99.90;;;;;;5032588;28;20076;-65
2023/09/12 03:48:25;;;;;;;126.13;35.75;;;17.30;99.90;;;;;;5044146;28;20683;-66
2023/09/12 03:50:51;;;;;;;64.68;32.38;;;17.30;99.90;;;;;;5042701;28;20029;-66
2023/09/12 03:53:17;;;;;;;63.53;33.42;;;17.30;99.90;;;;;;5043686;28;20430;-66
2023/09/12 03:55:42;;;;;;;61.40;32.80;;;17.30;99.90;;;;;;5047511;28;20033;-66
2023/09/12 03:58:08;;;;;;;67.80;32.78;;;17.30;99.90;;;;;;5047636;28;20120;-66
2023/09/12 04:00:33;;;;;;;61.53;32.35;;;17.30;99.90;;;;;;5030212;28;20133;-66
2023/09/12 04:02:59;;;;;;;62.92;32.13;;;17.20;99.90;;;;;;5043307;28;20501;-66
2023/09/12 04:05:26;;;;;;;64.90;32.55;;;17.20;99.90;;;;;;5038624;28;20053;-65
2023/09/12 04:07:51;;;;;;;57.00;31.08;;;17.20;99.90;;;;;;5039700;28;20268;-66
2023/09/12 04:10:18;;;;;;;57.22;30.17;;;17.10;99.90;;;;;;5044366;28;20048;-66
2023/09/12 04:12:44;;;;;;;59.25;31.13;;;17.10;99.90;;;;;;5045128;28;20496;-66
2023/09/12 04:15:09;;;;;;;51.40;29.42;;;17.10;99.90;;;;;;5042886;28;20071;-66
2023/09/12 04:17:35;;;;;;;43.72;25.35;;;17.00;99.90;;;;;;5038880;28;20041;-68
2023/09/12 04:20:00;;;;;;;47.28;27.95;;;16.90;99.90;;;;;;5037049;28;20037;-68
2023/09/12 04:22:26;;;;;;;51.03;28.42;;;16.80;99.90;;;;;;5040454;28;20410;-69
2023/09/12 04:24:51;;;;;;;50.67;28.52;;;16.70;99.90;;;;;;5047702;28;20033;-67
2023/09/12 04:27:17;;;;;;;49.92;26.67;;;16.60;99.90;;;;;;5031752;28;20045;-68
2023/09/12 04:29:43;;;;;;;49.10;27.88;;;16.50;99.90;;;;;;5033049;28;20468;-67
2023/09/12 04:32:09;;;;;;;49.80;26.52;;;16.40;99.90;;;;;;5042768;28;20040;-68
2023/09/12 04:34:35;;;;;;;51.90;28.98;;;16.40;99.90;;;;;;5041720;28;20037;-68
2023/09/12 04:37:02;;;;;;;54.95;25.30;;;16.30;99.90;;;;;;5043462;28;20146;-68
2023/09/12 04:39:28;;;;;;;209.68;27.90;;;16.30;99.90;;;;;;5032851;28;20037;-68
2023/09/12 04:41:53;;;;;;;43.28;24.33;;;16.30;99.90;;;;;;5043318;28;20048;-67
2023/09/12 04:44:19;;;;;;;36.40;20.60;;;16.30;99.90;;;;;;5047601;28;20083;-68
2023/09/12 04:46:46;;;;;;;41.25;23.05;;;16.30;99.90;;;;;;5036829;28;20489;-70
2023/09/12 04:49:11;;;;;;;75.03;26.77;;;16.30;99.90;;;;;;5038813;28;20051;-67
2023/09/12 04:51:37;;;;;;;48.55;24.25;;;16.30;99.90;;;;;;5037700;28;20045;-68
2023/09/12 04:54:03;;;;;;;41.97;23.90;;;16.30;99.90;;;;;;5046785;28;20370;-67
2023/09/12 04:56:28;;;;;;;38.00;22.67;;;16.40;99.90;;;;;;5040989;28;21002;-68
2023/09/12 04:58:54;;;;;;;44.28;24.45;;;16.50;99.90;;;;;;5044594;28;20036;-67
2023/09/12 05:01:19;;;;;;;55.15;27.75;;;16.50;99.90;;;;;;5032582;28;20107;-68
2023/09/12 05:03:45;;;;;;;48.28;24.02;;;16.50;99.90;;;;;;5042917;28;20485;-68
2023/09/12 05:06:12;;;;;;;71.10;27.33;;;16.40;99.90;;;;;;5045955;28;20045;-67
2023/09/12 05:08:38;;;;;;;53.47;25.92;;;16.50;99.90;;;;;;5033596;28;20597;-68
2023/09/12 05:11:03;;;;;;;42.75;22.75;;;16.50;99.90;;;;;;5033920;28;20033;-67
2023/09/12 05:13:30;;;;;;;57.60;25.00;;;16.50;99.90;;;;;;5049214;28;20755;-68
2023/09/12 05:15:56;;;;;;;61.08;27.98;;;16.50;99.90;;;;;;5032567;28;20466;-68
2023/09/12 05:18:22;;;;;;;68.40;29.33;;;16.60;99.90;;;;;;5044218;28;20087;-67
2023/09/12 05:20:47;;;;;;;71.43;29.13;;;16.60;99.90;;;;;;5041695;28;20473;-67
2023/09/12 05:23:13;;;;;;;61.72;30.00;;;16.60;99.90;;;;;;5041327;28;20033;-67
2023/09/12 05:25:38;;;;;;;60.13;28.58;;;16.70;99.90;;;;;;5032659;28;20041;-68
2023/09/12 05:28:04;;;;;;;56.78;28.50;;;16.60;99.90;;;;;;5034965;28;20182;-68
2023/09/12 05:30:30;;;;;;;70.90;28.90;;;16.60;99.90;;;;;;5042650;28;20120;-68
2023/09/12 05:32:56;;;;;;;68.53;30.35;;;16.70;99.90;;;;;;5040338;28;20053;-68
2023/09/12 05:35:21;;;;;;;93.38;32.03;;;16.70;99.90;;;;;;5037648;28;20058;-68
2023/09/12 05:37:47;;;;;;;58.97;29.35;;;16.70;99.90;;;;;;5042205;28;20044;-68
2023/09/12 05:40:13;;;;;;;77.18;30.40;;;16.70;99.90;;;;;;5045636;28;20123;-67
2023/09/12 05:42:39;;;;;;;75.70;31.02;;;16.70;99.90;;;;;;5047909;28;20086;-68
2023/09/12 05:45:05;;;;;;;76.07;30.52;;;16.80;99.90;;;;;;5029672;28;20053;-68
2023/09/12 05:47:31;;;;;;;69.88;28.48;;;16.70;99.90;;;;;;5044281;28;20044;-68
2023/09/12 05:49:59;;;;;;;64.55;28.70;;;16.70;99.90;;;;;;5042350;28;20071;-68
2023/09/12 05:52:24;;;;;;;67.15;29.65;;;16.70;99.90;;;;;;5043704;28;20045;-68
2023/09/12 05:54:50;;;;;;;70.35;28.60;;;16.70;99.90;;;;;;5047675;28;20036;-69
2023/09/12 05:57:16;;;;;;;63.42;29.17;;;16.80;99.90;;;;;;5040340;28;20044;-69
2023/09/12 05:59:41;;;;;;;78.93;31.25;;;16.80;99.90;;;;;;5043692;28;20072;-68
2023/09/12 06:02:09;;;;;;;82.93;31.00;;;16.90;99.90;;;;;;5033401;28;20061;-68
2023/09/12 06:04:35;;;;;;;134.23;33.95;;;16.90;99.90;;;;;;5028630;28;20170;-68
2023/09/12 06:07:04;;;;;;;76.90;32.28;;;17.00;99.90;;;;;;5041396;28;20430;-68
2023/09/12 06:09:31;;;;;;;112.68;33.60;;;17.00;99.90;;;;;;5037920;28;20049;-68
2023/09/12 06:11:56;;;;;;;102.90;33.60;;;17.10;99.90;;;;;;5045884;28;20043;-69
2023/09/12 06:14:22;;;;;;;72.63;31.73;;;17.10;99.90;;;;;;5035622;28;20548;-68
2023/09/12 06:16:48;;;;;;;94.47;33.80;;;17.30;99.90;;;;;;5036554;28;20135;-68
2023/09/12 06:19:17;;;;;;;93.88;32.20;;;17.30;99.90;;;;;;5041595;28;20037;-67
2023/09/12 06:21:43;;;;;;;65.80;32.47;;;17.40;99.90;;;;;;5037585;28;20379;-68
2023/09/12 06:24:17;;;;;;;88.35;32.70;;;17.50;99.90;;;;;;5042828;28;20086;-67
2023/09/12 06:26:43;;;;;;;90.30;32.20;;;17.60;99.90;;;;;;5041980;28;20511;-68
2023/09/12 06:29:09;;;;;;;89.85;31.48;;;17.50;99.90;;;;;;5043947;28;20050;-68
2023/09/12 06:31:35;;;;;;;86.30;31.50;;;17.60;99.90;;;;;;5026393;28;20414;-68
2023/09/12 06:34:01;;;;;;;77.53;33.33;;;17.60;99.90;;;;;;5025540;28;20033;-67
2023/09/12 06:36:29;;;;;;;74.90;32.72;;;17.60;99.90;;;;;;5040901;28;20041;-68
2023/09/12 06:38:55;;;;;;;77.07;31.13;;;17.60;99.90;;;;;;5043710;28;20052;-68
2023/09/12 06:41:21;;;;;;;73.60;31.98;;;17.70;99.90;;;;;;5037895;28;20482;-67
2023/09/12 06:43:47;;;;;;;120.13;33.67;;;17.70;99.90;;;;;;5041590;28;20099;-67
2023/09/12 06:46:13;;;;;;;93.93;34.78;;;17.70;99.90;;;;;;5030708;28;20049;-69
2023/09/12 06:48:38;;;;;;;72.72;34.38;;;17.80;99.90;;;;;;5043307;28;20049;-68
2023/09/12 06:51:09;;;;;;;78.25;33.33;;;17.80;99.90;;;;;;5039162;28;20055;-68
2023/09/12 06:53:36;;;;;;;;;;;17.90;99.90;;;;;;5041812;28;20029;-68
2023/09/12 06:56:01;;;;;;;82.15;34.28;;;18.00;99.90;;;;;;5026993;28;19925;-68
2023/09/12 06:58:27;;;;;;;68.10;32.40;;;18.00;99.90;;;;;;5039969;28;20134;-68
2023/09/12 07:00:53;;;;;;;78.22;33.25;;;17.90;99.90;;;;;;5040136;28;20106;-68
2023/09/12 07:03:18;;;;;;;85.72;35.67;;;18.10;99.90;;;;;;5038997;28;20060;-68
2023/09/12 07:05:44;;;;;;;77.50;35.22;;;18.20;99.90;;;;;;5037433;28;20075;-67
2023/09/12 07:08:10;;;;;;;78.68;34.38;;;18.20;99.90;;;;;;5046272;28;20131;-69
2023/09/12 07:10:36;;;;;;;74.53;34.15;;;18.20;99.90;;;;;;5039114;28;20037;-67
2023/09/12 07:13:02;;;;;;;79.88;36.25;;;18.20;99.90;;;;;;5041563;28;20048;-68
2023/09/12 07:15:27;;;;;;;79.30;35.35;;;18.30;99.90;;;;;;5036409;28;20119;-66
2023/09/12 07:17:53;;;;;;;79.55;35.40;;;18.40;99.90;;;;;;5041268;28;20125;-67
2023/09/12 07:20:19;;;;;;;73.25;35.55;;;18.50;99.90;;;;;;5044878;28;20450;-67
2023/09/12 07:22:46;;;;;;;69.38;34.58;;;18.60;99.90;;;;;;5044652;28;20943;-67
2023/09/12 07:25:16;;;;;;;66.35;33.00;;;18.70;99.90;;;;;;5049231;28;20465;-67
2023/09/12 07:27:41;;;;;;;61.30;31.58;;;18.70;99.90;;;;;;5031279;28;20041;-67
2023/09/12 07:30:07;;;;;;;62.65;32.88;;;18.70;99.90;;;;;;5036956;28;20087;-67
2023/09/12 07:32:33;;;;;;;64.90;32.22;;;18.70;99.90;;;;;;5035464;28;20044;-67
2023/09/12 07:34:58;;;;;;;64.95;32.10;;;18.70;99.90;;;;;;5040698;28;20608;-67
2023/09/12 07:37:24;;;;;;;59.03;31.08;;;18.80;99.90;;;;;;5031836;28;20414;-67
2023/09/12 07:39:49;;;;;;;57.03;30.73;;;18.80;99.90;;;;;;5047901;28;20036;-67
2023/09/12 07:42:15;;;;;;;64.63;34.63;;;18.80;99.90;;;;;;5033364;28;20143;-67
2023/09/12 07:44:41;;;;;;;71.28;33.42;;;18.80;99.90;;;;;;5043319;28;20155;-67
2023/09/12 07:47:07;;;;;;;67.13;32.25;;;18.80;99.90;;;;;;5044405;28;20084;-67
2023/09/12 07:49:32;;;;;;;66.35;33.30;;;18.90;99.90;;;;;;5046973;28;20044;-67
2023/09/12 07:51:58;;;;;;;62.75;32.40;;;19.00;99.90;;;;;;5030807;28;20489;-67
2023/09/12 07:54:23;;;;;;;66.80;33.67;;;19.10;99.90;;;;;;5040973;28;20817;-67
2023/09/12 07:56:49;;;;;;;64.47;31.80;;;19.20;99.90;;;;;;5049385;28;20040;-67
2023/09/12 07:59:14;;;;;;;64.35;33.17;;;19.20;99.90;;;;;;5047004;28;20041;-67
2023/09/12 08:01:40;;;;;;;62.70;32.20;;;19.40;99.90;;;;;;5049262;28;20041;-67
2023/09/12 08:04:06;;;;;;;65.95;32.90;;;19.40;99.90;;;;;;5050204;28;20045;-67
2023/09/12 08:06:34;;;;;;;59.35;30.40;;;19.20;99.90;;;;;;5053279;28;20079;-66
2023/09/12 08:09:00;;;;;;;58.90;30.35;;;19.40;99.90;;;;;;5050289;28;20041;-66
2023/09/12 08:11:27;;;;;;;59.70;30.95;;;19.50;99.90;;;;;;5051748;28;20422;-68
2023/09/12 08:13:52;;;;;;;59.35;31.40;;;19.60;99.90;;;;;;5051758;28;20106;-66
2023/09/12 08:16:18;;;;;;;61.38;30.83;;;19.80;99.90;;;;;;5048231;28;20049;-66
2023/09/12 08:18:43;;;;;;;56.00;28.05;;;19.90;99.90;;;;;;5051158;28;20503;-66
2023/09/12 08:21:10;;;;;;;56.42;29.83;;;20.00;99.90;;;;;;5044759;28;20041;-66
2023/09/12 08:23:36;;;;;;;61.03;30.40;;;20.00;99.90;;;;;;5036823;28;20045;-66
2023/09/12 08:26:02;;;;;;;57.50;29.75;;;20.00;99.90;;;;;;5049013;28;20388;-67
2023/09/12 08:28:27;;;;;;;48.92;27.80;;;19.80;99.90;;;;;;5047390;28;20415;-67
2023/09/12 08:30:53;;;;;;;57.30;31.40;;;19.70;99.90;;;;;;5047536;28;20120;-65
2023/09/12 08:33:18;;;;;;;55.97;30.85;;;19.80;99.90;;;;;;5045129;28;20058;-66
2023/09/12 08:35:44;;;;;;;53.47;29.25;;;19.80;99.90;;;;;;5032450;28;20052;-66
2023/09/12 08:38:10;;;;;;;54.35;29.55;;;19.90;99.90;;;;;;5042024;28;20130;-66
2023/09/12 08:40:35;;;;;;;51.95;27.80;;;20.00;99.90;;;;;;5037232;28;20462;-66
2023/09/12 08:43:03;;;;;;;50.65;28.13;;;20.10;99.90;;;;;;5037441;28;20037;-66
2023/09/12 08:45:29;;;;;;;55.75;28.25;;;20.10;99.90;;;;;;5054634;28;20093;-66
2023/09/12 08:47:58;;;;;;;53.22;27.35;;;20.10;99.90;;;;;;5037091;28;20040;-66
2023/09/12 08:50:24;;;;;;;51.47;27.50;;;20.00;99.90;;;;;;5044881;28;20047;-66
2023/09/12 08:52:50;;;;;;;51.97;28.50;;;20.00;99.90;;;;;;5046665;28;20120;-66
2023/09/12 08:55:16;;;;;;;49.45;26.35;;;20.00;99.90;;;;;;5052026;28;20033;-66
2023/09/12 08:57:43;;;;;;;47.50;27.23;;;20.00;99.90;;;;;;5045569;28;20463;-66
2023/09/12 09:00:14;;;;;;;49.17;27.40;;;19.90;99.90;;;;;;5044349;28;20110;-67
2023/09/12 09:02:43;;;;;;;50.78;27.35;;;20.00;99.90;;;;;;5049174;28;20065;-66
2023/09/12 09:05:10;;;;;;;47.80;26.15;;;20.10;99.90;;;;;;5047638;28;20090;-66
2023/09/12 09:07:37;;;;;;;43.80;24.35;;;20.20;99.90;;;;;;5047923;28;20068;-66
2023/09/12 09:10:07;;;;;;;45.90;26.98;;;20.20;99.90;;;;;;5049728;28;20045;-66
2023/09/12 09:12:34;;;;;;;42.97;24.80;;;20.30;99.90;;;;;;5032532;28;20132;-66
2023/09/12 09:15:20;;;;;;;45.50;26.17;;;20.10;99.90;;;;;;5046552;28;20037;-66
2023/09/12 09:17:46;;;;;;;44.65;25.40;;;20.10;99.90;;;;;;5046438;28;20036;-65
2023/09/12 09:20:31;;;;;;;50.60;26.48;;;20.10;99.90;;;;;;5047141;28;20099;-66
2023/09/12 09:23:10;;;;;;;44.90;25.58;;;20.20;99.90;;;;;;5034038;28;20055;-66
2023/09/12 09:25:39;;;;;;;42.28;25.20;;;20.20;99.90;;;;;;5035457;28;20072;-66
2023/09/12 09:28:15;;;;;;;41.20;22.45;;;20.10;99.90;;;;;;5038234;28;20151;-65
2023/09/12 09:30:46;;;;;;;40.65;24.08;;;20.20;99.90;;;;;;5033004;28;20080;-65
2023/09/12 09:33:13;;;;;;;44.97;25.70;;;20.30;99.90;;;;;;5036824;28;20190;-66
2023/09/12 09:35:41;;;;;;;44.45;26.52;;;20.30;99.90;;;;;;5044008;28;20040;-66
2023/09/12 09:38:08;;;;;;;44.83;24.95;;;20.30;99.90;;;;;;5035155;28;20164;-66
2023/09/12 09:40:34;;;;;;;40.83;24.10;;;20.40;99.90;;;;;;5032472;28;20038;-65
2023/09/12 09:43:02;;;;;;;39.65;24.38;;;20.40;99.90;;;;;;5044782;28;20418;-66
2023/09/12 09:45:29;;;;;;;42.15;24.33;;;20.60;99.90;;;;;;5029384;28;20037;-65
2023/09/12 09:48:21;;;;;;;45.58;25.25;;;20.80;99.90;;;;;;5018319;28;20107;-66
2023/09/12 09:50:47;;;;;;;43.95;25.05;;;21.00;99.90;;;;;;5029073;28;20143;-64
2023/09/12 09:53:13;;;;;;;43.08;24.80;;;21.20;99.90;;;;;;5040146;28;20112;-65
2023/09/12 09:55:39;;;;;;;41.20;24.00;;;21.20;99.90;;;;;;5040377;28;20128;-64
2023/09/12 09:58:07;;;;;;;38.88;23.15;;;21.30;99.90;;;;;;5032867;28;20045;-63
2023/09/12 10:00:36;;;;;;;41.58;25.00;;;21.30;99.90;;;;;;5035952;28;20051;-64
2023/09/12 10:03:05;;;;;;;42.40;25.45;;;21.40;99.90;;;;;;5037904;28;20179;-64
2023/09/12 10:05:32;;;;;;;37.20;22.77;;;21.40;99.90;;;;;;5041532;28;20053;-63
2023/09/12 10:08:01;;;;;;;37.05;22.17;;;21.50;99.90;;;;;;5032250;28;20385;-64
2023/09/12 10:10:29;;;;;;;36.80;22.30;;;21.50;99.90;;;;;;5031257;28;20086;-64
2023/09/12 10:12:58;;;;;;;36.67;22.77;;;21.60;99.90;;;;;;5034730;28;21075;-65
2023/09/12 10:15:29;;;;;;;38.00;21.77;;;21.80;99.90;;;;;;5043477;28;20067;-63
2023/09/12 10:18:01;;;;;;;37.83;22.35;;;21.80;99.90;;;;;;5038133;28;20436;-64
2023/09/12 10:20:50;;;;;;;35.83;22.90;;;22.10;99.90;;;;;;5036957;28;20040;-63
2023/09/12 10:23:41;;;;;;;37.75;22.23;;;22.30;99.90;;;;;;5030940;28;20072;-64
2023/09/12 10:26:09;;;;;;;39.05;23.33;;;22.40;99.90;;;;;;5042686;28;20572;-64
2023/09/12 10:28:35;;;;;;;37.25;22.00;;;22.40;99.90;;;;;;5034661;28;20040;-64
2023/09/12 10:31:01;;;;;;;34.67;21.92;;;22.40;99.90;;;;;;5030232;28;20690;-64
2023/09/12 10:33:31;;;;;;;33.88;21.45;;;22.50;99.90;;;;;;5036418;28;20052;-64
2023/09/12 10:35:58;;;;;;;30.40;20.10;;;22.60;99.90;;;;;;5039635;28;20112;-63
2023/09/12 10:38:28;;;;;;;30.38;19.70;;;22.70;99.90;;;;;;5039344;28;20080;-63
2023/09/12 10:40:55;;;;;;;33.70;20.83;;;22.80;99.90;;;;;;5040971;28;20465;-63
2023/09/12 10:43:23;;;;;;;33.15;19.90;;;22.90;99.90;;;;;;5035931;28;20099;-63
2023/09/12 10:45:51;;;;;;;27.35;17.98;;;23.10;99.90;;;;;;5040336;28;20041;-63
2023/09/12 10:48:17;;;;;;;26.73;17.80;;;23.30;99.90;;;;;;5049253;28;20036;-63
2023/09/12 10:50:43;;;;;;;29.15;17.85;;;23.30;99.90;;;;;;5050172;28;20056;-62
2023/09/12 10:53:14;;;;;;;29.85;19.27;;;23.30;99.90;;;;;;5044421;28;20060;-63
2023/09/12 10:55:40;;;;;;;30.60;20.05;;;23.20;99.90;;;;;;5041592;28;20453;-63
2023/09/12 10:58:08;;;;;;;28.95;19.20;;;23.30;99.80;;;;;;5048159;28;20083;-63
2023/09/12 11:00:34;;;;;;;26.95;18.00;;;23.30;98.70;;;;;;5045823;28;20052;-64
2023/09/12 11:03:27;;;;;;;27.05;18.73;;;23.60;97.90;;;;;;5030615;28;20045;-64
2023/09/12 11:05:54;;;;;;;27.90;18.13;;;23.60;97.50;;;;;;5045472;28;20060;-63
2023/09/12 11:08:20;;;;;;;25.83;17.40;;;23.60;97.20;;;;;;5047816;28;20084;-64
2023/09/12 11:11:21;;;;;;;26.27;19.00;;;23.70;97.20;;;;;;5028283;28;20480;-63
2023/09/12 11:14:02;;;;;;;26.77;17.88;;;23.80;95.40;;;;;;5045454;28;20077;-63
2023/09/12 11:16:27;;;;;;;24.85;17.00;;;23.90;96.10;;;;;;5024816;28;20212;-63
2023/09/12 11:19:13;;;;;;;26.55;16.90;;;23.90;95.70;;;;;;5034421;28;20447;-64
2023/09/12 11:21:39;;;;;;;28.88;17.35;;;23.90;93.70;;;;;;5041305;28;20435;-64
2023/09/12 11:24:05;;;;;;;31.00;19.50;;;24.00;95.20;;;;;;5038178;28;20037;-63
2023/09/12 11:26:30;;;;;;;24.63;15.95;;;24.30;94.70;;;;;;5036889;28;20037;-64
2023/09/12 11:28:56;;;;;;;24.13;16.27;;;24.40;94.30;;;;;;5017158;28;20350;-64
2023/09/12 11:31:28;;;;;;;25.52;16.52;;;24.50;93.50;;;;;;5029862;28;20049;-64
2023/09/12 11:33:54;;;;;;;22.05;15.10;;;24.60;92.80;;;;;;5032968;28;20548;-64
2023/09/12 11:36:19;;;;;;;22.73;14.90;;;24.80;93.30;;;;;;5042529;28;20242;-64
2023/09/12 11:38:49;;;;;;;23.63;14.75;;;25.00;92.70;;;;;;5041628;28;20037;-64
2023/09/12 11:41:35;;;;;;;22.70;15.63;;;25.20;92.30;;;;;;5030806;28;20068;-64
2023/09/12 11:44:04;;;;;;;22.42;14.80;;;25.30;92.00;;;;;;5042217;28;20476;-64
2023/09/12 11:46:29;;;;;;;24.10;15.15;;;25.20;91.40;;;;;;5042530;28;20060;-64
2023/09/12 11:48:56;;;;;;;22.65;15.60;;;25.10;91.30;;;;;;5042338;28;20496;-63
2023/09/12 11:51:26;;;;;;;24.35;15.27;;;25.20;90.70;;;;;;5045979;28;20153;-64
2023/09/12 11:53:53;;;;;;;;;;;25.20;90.60;;;;;;5042218;28;20473;-64
2023/09/12 11:56:19;;;;;;;25.35;15.75;;;25.10;89.60;;;;;;5046562;28;19917;-64
2023/09/12 11:58:44;;;;;;;22.52;14.95;;;25.20;91.40;;;;;;5041580;28;20048;-63
2023/09/12 12:01:13;;;;;;;26.33;17.08;;;25.20;90.80;;;;;;5023974;28;20075;-64
2023/09/12 12:03:38;;;;;;;23.13;16.42;;;25.20;90.50;;;;;;5037435;28;20053;-64
2023/09/12 12:06:04;;;;;;;21.73;14.60;;;25.30;90.50;;;;;;5046341;28;20413;-63
2023/09/12 12:08:31;;;;;;;25.88;17.67;;;25.10;90.40;;;;;;5036861;28;20103;-65
2023/09/12 12:10:58;;;;;;;28.02;18.58;;;24.80;90.10;;;;;;5030876;28;20064;-64
2023/09/12 12:13:24;;;;;;;27.75;17.63;;;24.60;90.10;;;;;;5038721;28;20120;-66
2023/09/12 12:15:50;;;;;;;26.40;16.77;;;24.60;90.40;;;;;;5040714;28;20282;-65
2023/09/12 12:18:15;;;;;;;27.98;17.17;;;24.70;90.50;;;;;;5032308;28;20041;-63
2023/09/12 12:20:42;;;;;;;27.58;17.08;;;24.70;90.50;;;;;;5038215;28;20037;-64
2023/09/12 12:23:07;;;;;;;22.42;15.45;;;24.50;90.10;;;;;;5038788;28;20103;-64
2023/09/12 12:25:34;;;;;;;22.83;14.50;;;24.60;90.00;;;;;;5032268;28;20045;-66
2023/09/12 12:28:04;;;;;;;27.92;16.65;;;24.70;90.20;;;;;;5047371;28;20418;-63